KBCB/BCB METAR and TAF weather

Enter ICAO airport designator
Station Type Date Time Source
KBCB METAR 2018/04/26 15:15 UTC NOAA

KBCB 261515Z AUTO 00000KT 10SM CLR 14/04 A2996 RMK AO2 T01400043


Station Type Date Time Source
KBCB Decoded METAR 2018/04/26 15:15 UTC NOAA

Virginia Tech Airport, VA, United States (KBCB) 37-13N 080-25W
Apr 26, 2018 - 11:15 AM EDT / 2018.04.26 1515 UTC
Wind: Calm:0
Visibility: 10 mile(s):0
Sky conditions: clear
Temperature: 57.2 F (14.0 C)
Dew Point: 39.7 F (4.3 C)
Relative Humidity: 51%
Pressure (altimeter): 29.96 in. Hg (1014 hPa)
ob: KBCB 261515Z AUTO 00000KT 10SM CLR 14/04 A2996 RMK AO2 T01400043
cycle: 15

Station Type Date Time Source
KBCB TAF 2018/04/26 14:36 UTC NOAA

TAF
AMD KBCB 261333Z 2614/2712 31005KT P6SM BKN050
FM270000 15006KT P6SM VCSH OVC030
FM270400 09005KT 4SM -RA BR OVC008


Example: see airport list